createdAt,value
2022-11-27T00:01:36.071Z,28.42
2022-11-27T00:04:04.081Z,28.45
2022-11-27T00:06:32.525Z,28.23
2022-11-27T00:09:08.134Z,29.55
2022-11-27T00:11:41.668Z,28.42
2022-11-27T00:14:14.670Z,26.58
2022-11-27T00:19:11.456Z,24.75
2022-11-27T00:21:39.058Z,26.25
2022-11-27T00:24:08.207Z,26.15
2022-11-27T00:26:38.023Z,26.65
2022-11-27T00:29:06.237Z,28.75
2022-11-27T00:31:37.378Z,28.02
2022-11-27T00:34:08.454Z,27.88
2022-11-27T00:36:37.268Z,27.50
2022-11-27T00:39:05.449Z,27.05
2022-11-27T00:41:33.057Z,26.73
2022-11-27T00:44:00.039Z,27.23
2022-11-27T00:46:33.803Z,26.83
2022-11-27T00:49:04.266Z,27.75
2022-11-27T00:51:31.575Z,29.15
2022-11-27T00:53:59.367Z,27.02
2022-11-27T00:56:31.323Z,28.95
2022-11-27T00:58:58.849Z,21.88
2022-11-27T01:01:41.883Z,28.25
2022-11-27T01:06:40.356Z,26.20
2022-11-27T01:09:07.788Z,28.08
2022-11-27T01:11:36.418Z,27.77
2022-11-27T01:14:08.002Z,27.55
2022-11-27T01:16:35.383Z,27.23
2022-11-27T01:19:03.406Z,27.10
2022-11-27T01:21:37.726Z,26.67
2022-11-27T01:24:05.885Z,27.30
2022-11-27T01:26:33.064Z,26.92
2022-11-27T01:29:00.382Z,26.23
2022-11-27T01:31:31.481Z,27.08
2022-11-27T01:34:06.244Z,27.05
2022-11-27T01:36:35.707Z,26.73
2022-11-27T01:39:03.606Z,26.25
2022-11-27T01:41:39.889Z,26.55
2022-11-27T01:44:25.008Z,26.60
2022-11-27T01:47:11.859Z,25.98
2022-11-27T01:49:48.885Z,25.60
2022-11-27T01:52:39.974Z,25.77
2022-11-27T01:55:21.963Z,25.90
2022-11-27T01:57:56.503Z,26.88
2022-11-27T02:00:25.847Z,26.15
2022-11-27T02:02:55.711Z,26.98
2022-11-27T02:05:25.787Z,27.52
2022-11-27T02:07:53.775Z,27.40
2022-11-27T02:10:22.970Z,27.38
2022-11-27T02:13:17.091Z,27.73
2022-11-27T02:15:57.706Z,28.13
2022-11-27T02:18:31.921Z,28.17
2022-11-27T02:21:16.260Z,29.15
2022-11-27T02:24:41.527Z,27.50
2022-11-27T02:27:52.068Z,28.33
2022-11-27T02:30:19.740Z,26.23
2022-11-27T02:32:54.767Z,28.33
2022-11-27T02:35:41.461Z,29.45
2022-11-27T02:38:15.325Z,28.52
2022-11-27T02:41:01.537Z,29.13
2022-11-27T02:43:38.403Z,27.23
2022-11-27T02:46:09.752Z,28.27
2022-11-27T02:48:45.618Z,28.15
2022-11-27T02:51:16.984Z,28.92
2022-11-27T02:53:51.843Z,27.88
2022-11-27T02:56:24.642Z,28.60
2022-11-27T02:58:56.984Z,28.35
2022-11-27T03:01:27.641Z,29.10
2022-11-27T03:03:59.951Z,28.15
2022-11-27T03:06:44.169Z,21.10
2022-11-27T03:09:19.923Z,26.48
2022-11-27T03:11:48.879Z,27.60
2022-11-27T03:14:17.194Z,25.48
2022-11-27T03:17:05.985Z,26.88
2022-11-27T03:19:50.802Z,25.20
2022-11-27T03:22:17.907Z,24.92
2022-11-27T03:24:45.252Z,24.80
2022-11-27T03:27:21.801Z,23.92
2022-11-27T03:30:07.470Z,25.40
2022-11-27T03:32:34.979Z,24.15
2022-11-27T03:35:02.358Z,23.98
2022-11-27T03:37:29.329Z,23.90
2022-11-27T03:39:56.581Z,22.90
2022-11-27T03:42:52.033Z,22.17
2022-11-27T03:46:19.450Z,23.98
2022-11-27T03:49:05.152Z,26.52
2022-11-27T03:51:46.440Z,25.63
2022-11-27T03:54:46.658Z,23.42
2022-11-27T03:57:28.872Z,22.33
2022-11-27T04:00:01.849Z,22.90
2022-11-27T04:05:13.934Z,21.25
2022-11-27T04:07:41.307Z,21.88
2022-11-27T04:10:10.906Z,21.00
2022-11-27T04:12:38.602Z,20.25
2022-11-27T04:15:07.027Z,20.23
2022-11-27T04:17:34.216Z,21.80
2022-11-27T04:20:01.242Z,20.67
2022-11-27T04:22:28.172Z,21.45
2022-11-27T04:24:55.120Z,20.48
2022-11-27T04:27:22.107Z,21.25
2022-11-27T04:29:49.135Z,21.10
2022-11-27T04:32:17.453Z,19.88
2022-11-27T04:34:44.424Z,20.08
2022-11-27T04:37:11.446Z,20.35
2022-11-27T04:39:38.347Z,19.88
2022-11-27T04:42:05.327Z,20.30
2022-11-27T04:44:32.214Z,20.67
2022-11-27T04:46:59.197Z,21.10
2022-11-27T04:49:26.342Z,20.77
2022-11-27T04:51:53.256Z,20.45
2022-11-27T04:54:20.193Z,19.77
2022-11-27T04:56:47.107Z,20.20
2022-11-27T04:59:14.040Z,22.10
2022-11-27T05:01:40.951Z,21.63
2022-11-27T05:04:07.878Z,22.35
2022-11-27T05:06:34.967Z,21.75
2022-11-27T05:09:02.304Z,22.88
2022-11-27T05:11:31.422Z,22.23
2022-11-27T05:14:18.071Z,22.20
2022-11-27T05:16:51.620Z,23.55
2022-11-27T05:19:22.515Z,24.30
2022-11-27T05:21:51.335Z,24.42
2022-11-27T05:24:22.188Z,23.95
2022-11-27T05:26:49.691Z,24.42
2022-11-27T05:29:17.752Z,23.45
2022-11-27T05:31:45.158Z,23.77
2022-11-27T05:34:12.295Z,23.48
2022-11-27T05:36:39.803Z,24.80
2022-11-27T05:39:08.564Z,24.85
2022-11-27T05:41:37.617Z,25.00
2022-11-27T05:44:05.613Z,24.25
2022-11-27T05:46:33.264Z,23.95
2022-11-27T05:49:00.263Z,24.08
2022-11-27T05:51:27.181Z,25.20
2022-11-27T05:53:54.277Z,24.48
2022-11-27T05:56:21.207Z,24.25
2022-11-27T05:58:48.627Z,24.50
2022-11-27T06:01:18.436Z,24.50
2022-11-27T06:03:45.764Z,24.95
2022-11-27T06:06:19.220Z,25.15
2022-11-27T06:08:47.769Z,25.45
2022-11-27T06:11:20.882Z,25.00
2022-11-27T06:13:49.754Z,25.27
2022-11-27T06:16:23.271Z,26.35
2022-11-27T06:18:53.077Z,26.63
2022-11-27T06:21:21.914Z,26.38
2022-11-27T06:23:49.774Z,27.80
2022-11-27T06:26:27.147Z,25.90
2022-11-27T06:28:55.975Z,26.75
2022-11-27T06:31:29.792Z,26.67
2022-11-27T06:33:57.561Z,26.38
2022-11-27T06:36:38.346Z,27.60
2022-11-27T06:39:07.133Z,26.40
2022-11-27T06:41:34.296Z,26.98
2022-11-27T06:44:02.336Z,27.42
2022-11-27T06:46:30.246Z,26.67
2022-11-27T06:48:59.279Z,25.80
2022-11-27T06:51:29.249Z,26.50
2022-11-27T06:53:56.822Z,26.38
2022-11-27T06:56:26.858Z,27.40
2022-11-27T06:58:56.690Z,26.65
2022-11-27T07:01:26.771Z,27.00
2022-11-27T07:03:53.855Z,25.55
2022-11-27T07:06:26.809Z,26.33
2022-11-27T07:11:25.778Z,25.20
2022-11-27T07:13:57.048Z,26.88
2022-11-27T07:16:25.147Z,27.15
2022-11-27T07:18:57.559Z,27.00
2022-11-27T07:21:25.318Z,27.95
2022-11-27T07:23:52.396Z,27.00
2022-11-27T07:26:25.724Z,27.15
2022-11-27T07:28:53.609Z,27.55
2022-11-27T07:31:28.870Z,28.10
2022-11-27T07:33:56.403Z,27.70
2022-11-27T07:36:30.085Z,28.60
2022-11-27T07:52:10.359Z,31.15
2022-11-27T07:54:40.126Z,28.42
2022-11-27T07:57:07.311Z,27.42
2022-11-27T07:59:34.294Z,27.73
2022-11-27T08:02:01.234Z,29.02
2022-11-27T08:04:28.250Z,28.38
2022-11-27T08:06:57.407Z,26.35
2022-11-27T08:09:24.373Z,28.15
2022-11-27T08:11:51.313Z,27.27
2022-11-27T08:14:19.283Z,28.83
2022-11-27T08:16:46.290Z,28.95
2022-11-27T08:19:14.031Z,29.13
2022-11-27T08:21:40.979Z,28.52
2022-11-27T08:24:09.234Z,27.88
2022-11-27T08:26:36.217Z,27.35
2022-11-27T08:29:03.602Z,28.20
2022-11-27T08:31:30.612Z,27.90
2022-11-27T08:33:57.626Z,28.60
2022-11-27T08:36:28.391Z,32.15
2022-11-27T08:38:56.300Z,36.15
2022-11-27T08:41:23.304Z,33.25
2022-11-27T08:43:50.287Z,32.72
2022-11-27T08:46:17.351Z,31.88
2022-11-27T08:48:44.357Z,31.17
2022-11-27T08:51:15.498Z,33.42
2022-11-27T08:53:45.954Z,33.08
2022-11-27T08:56:25.121Z,30.45
2022-11-27T08:58:52.692Z,29.98
2022-11-27T09:01:27.405Z,29.27
2022-11-27T09:03:55.227Z,27.50
2022-11-27T09:06:31.792Z,28.80
2022-11-27T09:09:01.654Z,28.80
2022-11-27T09:11:31.110Z,29.52
2022-11-27T09:14:00.338Z,28.02
2022-11-27T09:16:29.079Z,29.77
2022-11-27T09:18:57.036Z,27.75
2022-11-27T09:21:33.199Z,29.35
2022-11-27T09:24:01.958Z,28.63
2022-11-27T09:26:29.986Z,30.13
2022-11-27T09:28:59.147Z,30.40
2022-11-27T09:31:27.340Z,31.77
2022-11-27T09:33:54.324Z,32.08
2022-11-27T09:36:25.266Z,31.67
2022-11-27T09:38:53.370Z,30.85
2022-11-27T09:41:38.681Z,31.38
2022-11-27T09:44:32.827Z,30.67
2022-11-27T09:47:26.982Z,31.23
2022-11-27T09:50:18.920Z,30.52
2022-11-27T09:52:51.617Z,33.00
2022-11-27T09:55:41.607Z,32.17
2022-11-27T09:58:23.655Z,33.83
2022-11-27T10:00:50.567Z,31.65
2022-11-27T10:03:29.136Z,32.67
2022-11-27T10:06:36.923Z,31.45
2022-11-27T10:09:06.909Z,32.53
2022-11-27T10:12:08.994Z,32.40
2022-11-27T10:15:00.880Z,32.50
2022-11-27T10:17:52.663Z,33.97
2022-11-27T10:20:44.833Z,32.17
2022-11-27T10:23:33.066Z,34.67
2022-11-27T10:26:19.048Z,33.28
2022-11-27T10:29:11.494Z,31.33
2022-11-27T10:32:01.969Z,31.13
2022-11-27T10:34:41.168Z,28.98
2022-11-27T10:37:33.537Z,27.88
2022-11-27T10:40:08.490Z,27.00
2022-11-27T10:43:10.444Z,28.55
2022-11-27T10:45:52.992Z,28.00
2022-11-27T10:48:21.195Z,30.23
2022-11-27T10:50:49.093Z,30.45
2022-11-27T10:53:35.372Z,31.05
2022-11-27T10:56:17.394Z,29.77
2022-11-27T10:59:05.976Z,29.13
2022-11-27T11:02:05.528Z,27.52
2022-11-27T11:04:40.201Z,28.17
2022-11-27T11:07:29.590Z,29.38
2022-11-27T11:09:57.002Z,29.65
2022-11-27T11:12:24.497Z,29.70
2022-11-27T11:15:01.685Z,28.20
2022-11-27T11:17:40.796Z,29.75
2022-11-27T11:20:22.914Z,29.13
2022-11-27T11:22:50.982Z,30.02
2022-11-27T11:25:22.221Z,29.75
2022-11-27T11:27:51.723Z,28.65
2022-11-27T11:30:24.398Z,28.27
2022-11-27T11:32:59.886Z,28.52
2022-11-27T11:35:35.993Z,27.55
2022-11-27T11:38:19.537Z,27.25
2022-11-27T11:41:03.528Z,27.90
2022-11-27T11:43:35.564Z,28.70
2022-11-27T11:46:29.965Z,27.17
2022-11-27T11:49:08.470Z,27.58
2022-11-27T11:52:22.128Z,28.77
2022-11-27T11:55:03.798Z,27.13
2022-11-27T11:57:43.045Z,27.17
2022-11-27T12:00:16.953Z,31.33
2022-11-27T12:03:15.583Z,27.55
2022-11-27T12:06:21.423Z,33.28
2022-11-27T12:09:20.995Z,29.92
2022-11-27T12:12:22.707Z,28.85
2022-11-27T12:15:23.296Z,29.50
2022-11-27T12:18:18.902Z,31.45
2022-11-27T12:21:04.397Z,29.60
2022-11-27T12:23:46.142Z,30.48
2022-11-27T12:26:53.162Z,27.25
2022-11-27T12:29:52.382Z,24.90
2022-11-27T12:32:42.275Z,25.77
2022-11-27T12:35:50.563Z,26.67
2022-11-27T12:38:50.055Z,26.25
2022-11-27T12:41:32.483Z,26.17
2022-11-27T12:44:00.324Z,26.13
2022-11-27T12:46:43.414Z,25.48
2022-11-27T12:49:27.870Z,25.50
2022-11-27T12:52:28.210Z,25.73
2022-11-27T12:55:33.477Z,24.30
2022-11-27T12:58:12.763Z,26.63
2022-11-27T13:00:43.677Z,28.08
2022-11-27T13:03:31.220Z,27.77
2022-11-27T13:06:23.883Z,26.15
2022-11-27T13:09:01.773Z,27.67
2022-11-27T13:11:41.684Z,26.52
2022-11-27T13:14:22.028Z,27.77
2022-11-27T13:17:03.044Z,28.17
2022-11-27T13:19:51.538Z,29.48
2022-11-27T13:22:32.599Z,30.70
2022-11-27T13:25:02.744Z,33.03
2022-11-27T13:27:38.220Z,34.03
2022-11-27T13:30:16.940Z,35.47
2022-11-27T13:32:58.021Z,41.60
2022-11-27T13:35:42.639Z,41.63
2022-11-27T13:38:14.184Z,37.28
2022-11-27T13:40:52.062Z,37.95
2022-11-27T13:43:43.539Z,36.35
2022-11-27T13:46:25.002Z,37.47
2022-11-27T13:49:03.127Z,39.03
2022-11-27T13:51:37.565Z,37.58
2022-11-27T13:54:15.840Z,51.58
2022-11-27T13:56:43.315Z,52.60
2022-11-27T13:59:40.004Z,42.70
2022-11-27T14:02:09.154Z,38.78
2022-11-27T14:04:54.356Z,37.10
2022-11-27T14:07:35.052Z,40.20
2022-11-27T14:10:14.881Z,41.13
2022-11-27T14:12:53.492Z,41.17
2022-11-27T14:15:26.870Z,41.33
2022-11-27T14:18:09.453Z,42.08
2022-11-27T14:20:50.109Z,40.38
2022-11-27T14:23:48.736Z,39.97
2022-11-27T14:26:15.868Z,41.30
2022-11-27T14:28:48.817Z,41.30
2022-11-27T14:31:35.631Z,41.38
2022-11-27T14:34:23.110Z,41.75
2022-11-27T14:36:53.033Z,41.83
2022-11-27T14:39:34.324Z,42.92
2022-11-27T14:42:08.080Z,44.53
2022-11-27T14:44:35.571Z,45.80
2022-11-27T14:47:07.322Z,42.30
2022-11-27T14:49:35.312Z,43.60
2022-11-27T14:52:08.295Z,45.75
2022-11-27T14:57:06.948Z,40.70
2022-11-27T14:59:34.096Z,41.10
2022-11-27T15:02:17.410Z,41.40
2022-11-27T15:04:48.200Z,40.60
2022-11-27T15:07:25.142Z,41.40
2022-11-27T15:09:57.381Z,41.13
2022-11-27T15:12:34.108Z,43.53
2022-11-27T15:15:26.191Z,62.78
2022-11-27T15:18:02.113Z,52.15
2022-11-27T15:20:44.966Z,50.60
2022-11-27T15:23:28.627Z,46.47
2022-11-27T15:26:15.822Z,44.65
2022-11-27T15:28:57.350Z,44.35
2022-11-27T15:31:32.682Z,66.60
2022-11-27T15:34:20.716Z,72.03
2022-11-27T15:37:03.650Z,68.15
2022-11-27T15:39:52.098Z,68.03
2022-11-27T15:42:20.611Z,56.65
2022-11-27T15:44:50.007Z,51.92
2022-11-27T15:47:37.747Z,43.25
2022-11-27T15:50:07.392Z,79.00
2022-11-27T15:52:34.552Z,104.88
2022-11-27T15:55:01.552Z,224.82
2022-11-27T15:57:28.515Z,146.57
2022-11-27T15:59:55.440Z,85.88
2022-11-27T16:02:23.222Z,59.55
2022-11-27T16:04:52.953Z,75.68
2022-11-27T16:07:19.928Z,51.83
2022-11-27T16:09:47.835Z,39.65
2022-11-27T16:12:14.722Z,40.78
2022-11-27T16:14:41.978Z,36.78
2022-11-27T16:17:09.156Z,39.17
2022-11-27T16:19:36.107Z,48.25
2022-11-27T16:22:03.123Z,66.88
2022-11-27T16:24:30.158Z,71.47
2022-11-27T16:26:57.197Z,54.95
2022-11-27T16:29:24.213Z,63.88
2022-11-27T16:44:27.459Z,48.28
2022-11-27T16:46:54.439Z,46.67
2022-11-27T16:49:21.850Z,43.67
2022-11-27T16:51:48.869Z,38.65
2022-11-27T16:54:15.802Z,39.83
2022-11-27T16:56:43.504Z,41.40
2022-11-27T16:59:14.078Z,58.13
2022-11-27T17:01:42.385Z,58.55
2022-11-27T17:04:18.469Z,55.47
2022-11-27T17:06:47.548Z,49.22
2022-11-27T17:09:15.395Z,48.95
2022-11-27T17:11:48.416Z,50.17
2022-11-27T17:14:16.276Z,48.08
2022-11-27T17:16:43.713Z,47.70
2022-11-27T17:19:15.867Z,46.97
2022-11-27T17:21:43.138Z,37.30
2022-11-27T17:24:16.308Z,44.47
2022-11-27T17:26:45.457Z,50.42
2022-11-27T17:29:16.587Z,62.83
2022-11-27T17:31:44.057Z,59.67
2022-11-27T17:34:15.867Z,55.33
2022-11-27T17:36:45.005Z,46.67
2022-11-27T17:39:14.349Z,45.40
2022-11-27T17:41:44.228Z,42.70
2022-11-27T17:44:12.240Z,40.83
2022-11-27T17:46:40.080Z,46.38
2022-11-27T17:49:08.224Z,54.38
2022-11-27T17:51:36.305Z,44.47
2022-11-27T17:54:05.406Z,40.45
2022-11-27T17:56:34.432Z,36.63
2022-11-27T17:59:01.976Z,35.50
2022-11-27T18:01:30.868Z,34.88
2022-11-27T18:04:01.025Z,33.05
2022-11-27T18:06:28.176Z,32.30
2022-11-27T18:08:57.356Z,31.83
2022-11-27T18:11:28.125Z,33.53
2022-11-27T18:13:55.468Z,32.80
2022-11-27T18:16:33.549Z,32.72
2022-11-27T18:19:06.337Z,43.70
2022-11-27T18:21:34.611Z,51.50
2022-11-27T18:29:42.256Z,56.85
2022-11-27T18:32:11.962Z,53.30
2022-11-27T18:34:40.031Z,40.97
2022-11-27T18:37:08.549Z,38.47
2022-11-27T18:39:36.886Z,37.53
2022-11-27T18:42:05.825Z,57.55
2022-11-27T18:44:37.337Z,46.75
2022-11-27T18:47:10.232Z,41.35
2022-11-27T18:49:41.330Z,32.70
2022-11-27T18:52:09.672Z,30.95
2022-11-27T18:54:37.533Z,31.95
2022-11-27T18:57:07.009Z,45.47
2022-11-27T18:59:34.957Z,39.42
2022-11-27T19:02:02.264Z,37.58
2022-11-27T19:04:29.263Z,32.17
2022-11-27T19:06:56.362Z,36.97
2022-11-27T19:09:24.115Z,32.97
2022-11-27T19:11:51.056Z,35.60
2022-11-27T19:14:17.991Z,37.72
2022-11-27T19:16:46.959Z,33.70
2022-11-27T19:22:07.242Z,32.35
2022-11-27T19:24:34.326Z,31.85
2022-11-27T19:27:01.439Z,32.70
2022-11-27T19:29:28.406Z,32.22
2022-11-27T19:31:57.794Z,30.98
2022-11-27T19:34:24.803Z,36.78
2022-11-27T19:36:51.783Z,41.28
2022-11-27T19:39:19.103Z,48.70
2022-11-27T19:41:46.160Z,45.03
2022-11-27T19:44:13.886Z,38.00
2022-11-27T19:46:41.253Z,33.20
2022-11-27T19:49:14.692Z,34.10
2022-11-27T19:51:41.779Z,33.58
2022-11-27T19:54:12.735Z,33.22
2022-11-27T19:56:42.236Z,34.22
2022-11-27T19:59:10.732Z,31.98
2022-11-27T20:01:40.831Z,32.08
2022-11-27T20:04:15.080Z,33.72
2022-11-27T20:06:42.212Z,32.20
2022-11-27T20:09:10.469Z,31.83
2022-11-27T20:11:38.165Z,32.47
2022-11-27T20:14:06.534Z,34.88
2022-11-27T20:16:37.624Z,34.17
2022-11-27T20:19:07.179Z,36.50
2022-11-27T20:21:34.635Z,36.05
2022-11-27T20:24:02.575Z,37.40
2022-11-27T20:26:30.563Z,31.60
2022-11-27T20:28:58.514Z,29.85
2022-11-27T20:31:32.136Z,33.67
2022-11-27T20:34:03.939Z,35.55
2022-11-27T20:36:34.118Z,37.83
2022-11-27T20:39:01.777Z,49.80
2022-11-27T20:41:29.522Z,70.03
2022-11-27T20:44:02.263Z,51.45
2022-11-27T20:46:29.384Z,45.28
2022-11-27T20:48:57.834Z,42.28
2022-11-27T20:51:30.750Z,38.70
2022-11-27T20:56:27.600Z,46.95
2022-11-27T20:58:55.191Z,51.13
2022-11-27T21:01:36.146Z,51.63
2022-11-27T21:04:09.564Z,42.33
2022-11-27T21:06:43.494Z,39.75
2022-11-27T21:09:13.662Z,32.97
2022-11-27T21:11:42.135Z,33.83
2022-11-27T21:14:12.192Z,39.05
2022-11-27T21:16:49.143Z,42.13
2022-11-27T21:19:21.787Z,34.60
2022-11-27T21:21:50.233Z,35.42
2022-11-27T21:24:19.006Z,35.22
2022-11-27T21:26:47.163Z,35.95
2022-11-27T21:29:15.525Z,36.80
2022-11-27T21:31:46.739Z,36.70
2022-11-27T21:34:15.036Z,38.95
2022-11-27T21:36:41.985Z,35.33
2022-11-27T21:39:12.635Z,35.50
2022-11-27T21:41:39.776Z,39.70
2022-11-27T21:44:06.987Z,40.17
2022-11-27T21:46:34.908Z,38.10
2022-11-27T21:49:02.081Z,36.58
2022-11-27T21:51:30.427Z,37.90
2022-11-27T21:53:59.007Z,43.15
2022-11-27T21:56:29.126Z,45.65
2022-11-27T21:58:56.312Z,40.45
2022-11-27T22:01:25.646Z,43.85
2022-11-27T22:03:54.757Z,39.60
2022-11-27T22:06:24.632Z,38.17
2022-11-27T22:08:53.887Z,33.05
2022-11-27T22:11:26.775Z,31.50
2022-11-27T22:14:13.295Z,34.10
2022-11-27T22:16:45.249Z,33.90
2022-11-27T22:19:14.377Z,36.67
2022-11-27T22:21:42.013Z,35.50
2022-11-27T22:24:16.509Z,36.10
2022-11-27T22:26:45.850Z,35.10
2022-11-27T22:29:12.792Z,36.47
2022-11-27T22:31:39.874Z,35.95
2022-11-27T22:46:22.490Z,48.47
2022-11-27T22:49:00.170Z,42.72
2022-11-27T22:51:30.436Z,41.72
2022-11-27T22:53:57.765Z,40.28
2022-11-27T22:56:25.840Z,39.70
2022-11-27T22:59:11.242Z,39.53
2022-11-27T23:01:40.962Z,38.78
2022-11-27T23:04:08.288Z,38.03
2022-11-27T23:06:35.839Z,42.47
2022-11-27T23:09:03.052Z,43.05
2022-11-27T23:11:30.537Z,42.50
2022-11-27T23:14:00.979Z,46.25
2022-11-27T23:16:27.931Z,42.30
2022-11-27T23:18:54.889Z,43.17
2022-11-27T23:21:24.523Z,42.22
2022-11-27T23:23:51.884Z,42.22
2022-11-27T23:26:23.092Z,39.97
2022-11-27T23:28:53.680Z,42.10
2022-11-27T23:31:32.406Z,41.30
2022-11-27T23:34:02.307Z,40.25
2022-11-27T23:36:31.571Z,38.83
2022-11-27T23:39:05.338Z,42.03
2022-11-27T23:41:32.765Z,42.88
2022-11-27T23:44:01.453Z,42.42
2022-11-27T23:46:30.337Z,40.80
2022-11-27T23:49:00.089Z,39.42
2022-11-27T23:51:31.720Z,39.13
2022-11-27T23:54:00.114Z,39.97
2022-11-27T23:56:30.645Z,39.38
2022-11-27T23:58:59.398Z,40.47
